Time;durP1;ratioP1;P1;durP2;ratioP2;P2;SDS_P1;SDS_P2;PMS_P1;PMS_P2;Temp;Humidity;BMP_temperature;BMP_pressure;BME280_temperature;BME280_humidity;BME280_pressure;Samples;Min_cycle;Max_cycle;Signal;HPM_P1;HPM_P2
2022/05/19 00:02:19;;;;;;;4.63;2.17;;;15.10;99.90;;;;;;5055991;28;20040;-73
2022/05/19 00:04:45;;;;;;;5.00;1.95;;;15.10;99.90;;;;;;5056860;28;20095;-74
2022/05/19 00:07:12;;;;;;;4.57;2.75;;;15.10;99.90;;;;;;5055181;28;20024;-74
2022/05/19 00:09:38;;;;;;;5.93;2.63;;;15.00;99.90;;;;;;5056917;28;20115;-73
2022/05/19 00:12:07;;;;;;;6.75;2.28;;;15.00;99.90;;;;;;5060207;28;20484;-73
2022/05/19 00:14:33;;;;;;;6.07;2.67;;;15.00;99.90;;;;;;5060404;28;20054;-74
2022/05/19 00:16:58;;;;;;;8.48;3.00;;;15.00;99.90;;;;;;5062315;28;20534;-74
2022/05/19 00:19:25;;;;;;;4.07;1.98;;;15.00;99.90;;;;;;5060151;28;20415;-73
2022/05/19 00:21:51;;;;;;;4.53;2.60;;;15.00;99.90;;;;;;5061462;28;20040;-74
2022/05/19 00:24:17;;;;;;;8.88;3.10;;;15.00;99.90;;;;;;5062043;28;20488;-74
2022/05/19 00:26:43;;;;;;;5.80;2.80;;;14.90;99.90;;;;;;5059835;28;20056;-74
2022/05/19 00:29:08;;;;;;;8.18;3.33;;;14.90;99.90;;;;;;5061199;28;20166;-74
2022/05/19 00:31:35;;;;;;;7.10;3.05;;;14.90;99.90;;;;;;5060019;28;20041;-74
2022/05/19 00:34:02;;;;;;;7.53;3.92;;;14.80;99.90;;;;;;5060185;28;20043;-74
2022/05/19 00:36:28;;;;;;;6.32;3.35;;;14.80;99.90;;;;;;5063398;28;20066;-73
2022/05/19 00:38:54;;;;;;;8.25;3.58;;;14.80;99.90;;;;;;5059649;28;20517;-74
2022/05/19 00:41:19;;;;;;;6.88;3.58;;;14.80;99.90;;;;;;5057526;28;20028;-74
2022/05/19 00:43:56;;;;;;;7.70;3.70;;;14.80;99.90;;;;;;5062464;28;20044;-74
2022/05/19 00:46:26;;;;;;;7.15;3.38;;;14.80;99.90;;;;;;5055556;28;20318;-74
2022/05/19 00:49:09;;;;;;;6.43;3.50;;;14.70;99.90;;;;;;5060200;28;20500;-74
2022/05/19 00:51:48;;;;;;;4.97;3.30;;;14.70;99.90;;;;;;5053762;28;20393;-74
2022/05/19 00:54:19;;;;;;;4.93;3.33;;;14.60;99.90;;;;;;5061239;28;20047;-75
2022/05/19 00:56:54;;;;;;;8.38;3.60;;;14.60;99.90;;;;;;5061395;28;20036;-75
2022/05/19 00:59:44;;;;;;;6.75;3.38;;;14.60;99.90;;;;;;5060916;28;20403;-74
2022/05/19 01:02:11;;;;;;;8.52;3.80;;;14.60;99.90;;;;;;5054721;28;20461;-74
2022/05/19 01:05:04;;;;;;;7.68;3.80;;;14.70;99.90;;;;;;5058813;28;20408;-75
2022/05/19 01:07:36;;;;;;;7.00;3.40;;;14.60;99.90;;;;;;5060323;28;20039;-75
2022/05/19 01:10:04;;;;;;;6.85;3.28;;;14.60;99.90;;;;;;5059713;28;20024;-75
2022/05/19 01:12:30;;;;;;;4.57;3.35;;;14.60;99.90;;;;;;5060999;28;20078;-74
2022/05/19 01:14:55;;;;;;;5.65;3.47;;;14.60;99.90;;;;;;5059305;28;20032;-75
2022/05/19 01:17:22;;;;;;;7.10;3.13;;;14.60;99.90;;;;;;5060650;28;20044;-74
2022/05/19 01:19:58;;;;;;;5.45;3.42;;;14.60;99.90;;;;;;5060535;28;20107;-75
2022/05/19 01:22:35;;;;;;;6.95;4.18;;;14.60;99.90;;;;;;5058236;28;20035;-75
2022/05/19 01:25:06;;;;;;;6.35;4.10;;;14.60;99.90;;;;;;5056717;28;20025;-74
2022/05/19 01:27:32;;;;;;;7.07;3.53;;;14.60;99.90;;;;;;5056159;28;20025;-74
2022/05/19 01:29:57;;;;;;;6.47;3.72;;;14.50;99.90;;;;;;5059513;28;20047;-74
2022/05/19 01:32:32;;;;;;;8.23;4.50;;;14.50;99.90;;;;;;5055371;28;20047;-74
2022/05/19 01:34:59;;;;;;;7.35;3.38;;;14.40;99.90;;;;;;5053549;28;20032;-74
2022/05/19 01:37:25;;;;;;;14.75;3.88;;;14.40;99.90;;;;;;5062208;28;20016;-73
2022/05/19 01:39:56;;;;;;;5.47;3.22;;;14.40;99.90;;;;;;5059296;28;20029;-74
2022/05/19 01:42:40;;;;;;;7.60;3.50;;;14.40;99.90;;;;;;5061266;28;20452;-74
2022/05/19 01:45:39;;;;;;;7.78;3.95;;;14.30;99.90;;;;;;5058002;28;20094;-75
2022/05/19 01:48:30;;;;;;;12.35;4.60;;;14.40;99.90;;;;;;5056945;28;20388;-74
2022/05/19 01:51:09;;;;;;;10.05;3.97;;;14.50;99.90;;;;;;5050212;28;20036;-74
2022/05/19 01:53:47;;;;;;;7.15;3.78;;;14.50;99.90;;;;;;5055317;28;20024;-74
2022/05/19 01:56:26;;;;;;;8.05;3.90;;;14.50;99.90;;;;;;5054194;28;20032;-74
2022/05/19 01:59:16;;;;;;;9.95;3.38;;;14.50;99.90;;;;;;5048904;28;20036;-73
2022/05/19 02:01:48;;;;;;;8.32;3.10;;;14.40;99.90;;;;;;5051298;28;20135;-74
2022/05/19 02:04:38;;;;;;;7.07;3.53;;;14.30;99.90;;;;;;5055893;28;20090;-74
2022/05/19 02:07:07;;;;;;;8.68;4.50;;;14.30;99.90;;;;;;5055803;28;20384;-74
2022/05/19 02:09:39;;;;;;;9.55;3.83;;;14.30;99.90;;;;;;5057048;28;20396;-74
2022/05/19 02:12:05;;;;;;;7.15;3.92;;;14.30;99.90;;;;;;5057615;28;20480;-74
2022/05/19 02:14:36;;;;;;;8.98;4.25;;;14.40;99.90;;;;;;5056430;28;20328;-74
2022/05/19 02:17:06;;;;;;;8.15;5.10;;;14.40;99.90;;;;;;5056795;28;20024;-74
2022/05/19 02:19:39;;;;;;;6.80;4.10;;;14.40;99.90;;;;;;5048496;28;20056;-74
2022/05/19 02:22:09;;;;;;;9.27;4.65;;;14.40;99.90;;;;;;5034497;28;20117;-74
2022/05/19 02:24:52;;;;;;;8.38;4.60;;;14.40;99.90;;;;;;5050996;28;20524;-74
2022/05/19 02:27:32;;;;;;;10.68;5.13;;;14.50;99.90;;;;;;5058227;28;20067;-74
2022/05/19 02:30:00;;;;;;;7.13;3.80;;;14.50;99.90;;;;;;5056897;28;20028;-74
2022/05/19 02:32:27;;;;;;;6.30;4.28;;;14.40;99.90;;;;;;5056557;28;20040;-74
2022/05/19 02:34:53;;;;;;;7.13;4.15;;;14.30;99.90;;;;;;5056380;28;20039;-73
2022/05/19 02:37:18;;;;;;;9.40;4.18;;;14.30;99.90;;;;;;5050862;28;20412;-73
2022/05/19 02:39:44;;;;;;;10.38;5.00;;;14.40;99.90;;;;;;5053203;28;20028;-74
2022/05/19 02:42:10;;;;;;;8.07;4.75;;;14.30;99.90;;;;;;5052060;28;20036;-74
2022/05/19 02:44:36;;;;;;;5.55;3.97;;;14.30;99.90;;;;;;5052317;28;20028;-74
2022/05/19 02:47:01;;;;;;;6.35;4.43;;;14.30;99.90;;;;;;5057336;28;20529;-74
2022/05/19 02:49:27;;;;;;;12.18;5.13;;;14.20;99.90;;;;;;5054945;28;20024;-74
2022/05/19 02:51:52;;;;;;;60.08;6.75;;;14.10;99.90;;;;;;5053417;28;20207;-74
2022/05/19 02:54:21;;;;;;;9.85;4.47;;;14.00;99.90;;;;;;5057140;28;20020;-73
2022/05/19 02:56:47;;;;;;;23.75;4.65;;;13.90;99.90;;;;;;5057662;28;20444;-74
2022/05/19 02:59:13;;;;;;;6.80;4.47;;;13.90;99.90;;;;;;5058122;28;20043;-74
2022/05/19 03:01:39;;;;;;;7.13;4.85;;;13.90;99.90;;;;;;5054994;28;20408;-74
2022/05/19 03:04:04;;;;;;;11.38;6.05;;;13.90;99.90;;;;;;5056547;28;20629;-74
2022/05/19 03:06:30;;;;;;;10.23;5.72;;;13.90;99.90;;;;;;5052832;28;20036;-74
2022/05/19 03:08:56;;;;;;;11.32;6.20;;;14.00;99.90;;;;;;5057820;28;20033;-74
2022/05/19 03:11:21;;;;;;;11.90;6.45;;;14.00;99.90;;;;;;5057524;28;20043;-74
2022/05/19 03:13:47;;;;;;;11.73;6.38;;;14.10;99.90;;;;;;5055731;28;21032;-74
2022/05/19 03:16:12;;;;;;;10.40;5.65;;;14.10;99.90;;;;;;5056396;28;20285;-73
2022/05/19 03:18:38;;;;;;;8.63;4.95;;;14.10;99.90;;;;;;5059449;28;20032;-74
2022/05/19 03:21:04;;;;;;;7.07;5.05;;;14.10;99.90;;;;;;5054983;28;20202;-74
2022/05/19 03:23:29;;;;;;;6.45;4.35;;;14.10;99.90;;;;;;5050139;28;20570;-74
2022/05/19 03:25:55;;;;;;;9.38;4.63;;;14.00;99.90;;;;;;5057678;28;20540;-74
2022/05/19 03:28:21;;;;;;;8.35;4.65;;;13.90;99.90;;;;;;5056292;28;20101;-73
2022/05/19 03:30:46;;;;;;;7.97;4.25;;;13.80;99.90;;;;;;5056316;28;20078;-74
2022/05/19 03:33:12;;;;;;;6.53;4.30;;;13.70;99.90;;;;;;5057000;28;20462;-74
2022/05/19 03:35:40;;;;;;;5.68;4.32;;;13.60;99.90;;;;;;5057554;28;20123;-74
2022/05/19 03:38:06;;;;;;;11.07;5.43;;;13.60;99.90;;;;;;5055603;28;20395;-74
2022/05/19 03:40:32;;;;;;;11.20;5.95;;;13.50;99.90;;;;;;5048337;28;20090;-73
2022/05/19 03:42:57;;;;;;;10.55;5.53;;;13.50;99.90;;;;;;5056819;28;20349;-74
2022/05/19 03:45:23;;;;;;;11.80;6.22;;;13.40;99.90;;;;;;5058254;28;20413;-74
2022/05/19 03:47:49;;;;;;;14.25;7.95;;;13.40;99.90;;;;;;5060004;28;20564;-73
2022/05/19 03:50:15;;;;;;;25.42;9.18;;;13.40;99.90;;;;;;5057133;28;20027;-74
2022/05/19 03:52:42;;;;;;;22.13;10.07;;;13.40;99.90;;;;;;5057758;28;20599;-74
2022/05/19 03:55:08;;;;;;;29.45;12.63;;;13.50;99.90;;;;;;5061632;28;20025;-74
2022/05/19 03:57:34;;;;;;;26.63;11.88;;;13.60;99.90;;;;;;5054912;28;20036;-74
2022/05/19 04:00:00;;;;;;;21.85;11.60;;;13.60;99.90;;;;;;5060169;28;20025;-74
2022/05/19 04:02:25;;;;;;;28.17;11.90;;;13.60;99.90;;;;;;5059302;28;20056;-73
2022/05/19 04:04:51;;;;;;;28.45;12.23;;;13.60;99.90;;;;;;5060041;28;20381;-74
2022/05/19 04:07:17;;;;;;;34.58;14.18;;;13.60;99.90;;;;;;5057704;28;20040;-74
2022/05/19 04:09:42;;;;;;;27.88;12.85;;;13.60;99.90;;;;;;5059191;28;20039;-74
2022/05/19 04:12:09;;;;;;;25.98;10.88;;;13.60;99.90;;;;;;5060296;28;20136;-74
2022/05/19 04:14:35;;;;;;;21.60;10.40;;;13.60;99.90;;;;;;5058789;28;20028;-74
2022/05/19 04:17:00;;;;;;;21.88;8.25;;;13.60;99.90;;;;;;5057021;28;20480;-74
2022/05/19 04:19:26;;;;;;;24.00;10.75;;;13.50;99.90;;;;;;5056685;28;20503;-74
2022/05/19 04:21:51;;;;;;;31.40;12.77;;;13.50;99.90;;;;;;5058314;28;20037;-74
2022/05/19 04:24:17;;;;;;;29.90;12.77;;;13.50;99.90;;;;;;5056741;28;20632;-74
2022/05/19 04:26:43;;;;;;;35.08;14.20;;;13.60;99.90;;;;;;5056290;28;20029;-74
2022/05/19 04:29:08;;;;;;;34.50;15.43;;;13.60;99.90;;;;;;5058370;28;20132;-74
2022/05/19 04:31:34;;;;;;;43.45;16.58;;;13.70;99.90;;;;;;5054724;28;20115;-74
2022/05/19 04:33:59;;;;;;;40.08;16.40;;;13.70;99.90;;;;;;5056788;28;20036;-74
2022/05/19 04:36:25;;;;;;;39.50;16.45;;;13.80;99.90;;;;;;5055890;28;20448;-74
2022/05/19 04:38:51;;;;;;;39.03;16.90;;;13.80;99.90;;;;;;5061108;28;20032;-74
2022/05/19 04:41:17;;;;;;;36.35;17.40;;;13.80;99.90;;;;;;5060237;28;20046;-74
2022/05/19 04:43:43;;;;;;;40.40;16.75;;;13.90;99.90;;;;;;5057216;28;20033;-75
2022/05/19 04:46:09;;;;;;;34.88;15.88;;;14.00;99.90;;;;;;5058450;28;20046;-74
2022/05/19 04:48:35;;;;;;;49.35;19.17;;;14.10;99.90;;;;;;5060136;28;20024;-74
2022/05/19 04:51:02;;;;;;;50.58;20.27;;;14.10;99.90;;;;;;5057371;28;20031;-74
2022/05/19 04:53:28;;;;;;;45.33;20.30;;;14.20;99.90;;;;;;5057218;28;20032;-74
2022/05/19 04:55:54;;;;;;;50.17;18.83;;;14.20;99.90;;;;;;5056545;28;20412;-74
2022/05/19 04:58:20;;;;;;;59.75;20.02;;;14.20;99.90;;;;;;5058821;28;20043;-74
2022/05/19 05:00:48;;;;;;;50.13;19.10;;;14.30;99.90;;;;;;5057545;28;20767;-74
2022/05/19 05:03:13;;;;;;;49.75;21.02;;;14.30;99.90;;;;;;5053759;28;20578;-74
2022/05/19 05:05:39;;;;;;;52.47;19.98;;;14.30;99.90;;;;;;5054593;28;20434;-75
2022/05/19 05:08:05;;;;;;;51.67;20.98;;;14.40;99.90;;;;;;5056739;28;20060;-74
2022/05/19 05:10:31;;;;;;;60.88;22.63;;;14.50;99.90;;;;;;5053651;28;20029;-74
2022/05/19 05:12:56;;;;;;;66.43;22.73;;;14.60;99.90;;;;;;5057144;28;20040;-73
2022/05/19 05:15:22;;;;;;;61.20;22.42;;;14.60;99.90;;;;;;5056949;28;20040;-74
2022/05/19 05:17:47;;;;;;;63.42;21.60;;;14.60;99.90;;;;;;5055339;28;20032;-74
2022/05/19 05:20:14;;;;;;;53.67;21.90;;;14.60;99.90;;;;;;5055661;28;20174;-74
2022/05/19 05:22:40;;;;;;;68.28;22.65;;;14.60;99.90;;;;;;5054273;28;20052;-74
2022/05/19 05:25:14;;;;;;;60.60;22.95;;;14.60;99.90;;;;;;5057377;28;20025;-74
2022/05/19 05:27:39;;;;;;;62.38;24.65;;;14.60;99.90;;;;;;5055974;28;20135;-74
2022/05/19 05:30:06;;;;;;;57.95;23.27;;;14.60;99.90;;;;;;5056367;28;20446;-74
2022/05/19 05:32:33;;;;;;;60.35;24.15;;;14.60;99.90;;;;;;5055195;28;20271;-74
2022/05/19 05:34:58;;;;;;;59.85;24.50;;;14.60;99.90;;;;;;5057114;28;20041;-75
2022/05/19 05:37:24;;;;;;;51.63;23.55;;;14.60;99.90;;;;;;5055846;28;20579;-74
2022/05/19 05:39:50;;;;;;;42.90;21.00;;;14.60;99.90;;;;;;5058149;28;20115;-74
2022/05/19 05:42:16;;;;;;;44.05;20.45;;;14.70;99.90;;;;;;5056199;28;20423;-75
2022/05/19 05:44:41;;;;;;;44.28;20.08;;;14.60;99.90;;;;;;5057315;28;20406;-74
2022/05/19 05:47:07;;;;;;;46.40;21.58;;;14.70;99.90;;;;;;5056181;28;20086;-74
2022/05/19 05:49:33;;;;;;;35.30;19.92;;;14.60;99.90;;;;;;5051502;28;20040;-75
2022/05/19 05:51:59;;;;;;;35.70;18.70;;;14.70;99.90;;;;;;5053702;28;20028;-74
2022/05/19 05:54:24;;;;;;;38.60;19.85;;;14.60;99.90;;;;;;5051321;28;20421;-74
2022/05/19 05:56:52;;;;;;;36.53;17.85;;;14.50;99.90;;;;;;5051167;28;20024;-75
2022/05/19 05:59:18;;;;;;;31.27;18.77;;;14.50;99.90;;;;;;5051123;28;20036;-74
2022/05/19 06:01:43;;;;;;;39.95;20.05;;;14.50;99.90;;;;;;5049615;28;20047;-74
2022/05/19 06:04:09;;;;;;;37.63;20.13;;;14.50;99.90;;;;;;5064130;28;20408;-74
2022/05/19 06:06:34;;;;;;;41.38;21.08;;;14.50;99.90;;;;;;5054717;28;20027;-74
2022/05/19 06:09:00;;;;;;;40.13;22.65;;;14.40;99.90;;;;;;5051333;28;20483;-74
2022/05/19 06:11:26;;;;;;;41.17;20.52;;;14.50;99.90;;;;;;5054278;28;20078;-74
2022/05/19 06:13:52;;;;;;;45.80;21.58;;;14.50;99.90;;;;;;5054434;28;20021;-74
2022/05/19 06:16:18;;;;;;;32.80;19.25;;;14.60;99.90;;;;;;5055946;28;20082;-73
2022/05/19 06:18:44;;;;;;;42.50;21.42;;;14.60;99.90;;;;;;5048810;28;20168;-73
2022/05/19 06:21:09;;;;;;;39.17;20.90;;;14.60;99.90;;;;;;5046330;28;20438;-73
2022/05/19 06:23:35;;;;;;;39.80;25.80;;;14.70;99.90;;;;;;5050051;28;20097;-74
2022/05/19 06:26:02;;;;;;;42.78;24.17;;;14.80;99.90;;;;;;5051968;28;20366;-73
2022/05/19 06:28:28;;;;;;;40.80;22.25;;;14.80;99.90;;;;;;5049080;28;20124;-73
2022/05/19 06:30:54;;;;;;;39.33;21.95;;;15.10;99.90;;;;;;5054481;28;20086;-74
2022/05/19 06:33:22;;;;;;;37.67;21.30;;;15.20;99.90;;;;;;5052272;28;20098;-73
2022/05/19 06:35:48;;;;;;;33.53;20.67;;;15.20;99.90;;;;;;5045315;28;20028;-73
2022/05/19 06:38:14;;;;;;;34.22;19.52;;;15.30;99.90;;;;;;5042504;28;20051;-74
2022/05/19 06:40:41;;;;;;;42.90;26.67;;;15.40;99.90;;;;;;5038690;28;20033;-73
2022/05/19 06:43:11;;;;;;;27.33;18.10;;;15.40;99.90;;;;;;5043197;28;20032;-74
2022/05/19 06:45:37;;;;;;;30.27;18.02;;;15.20;99.90;;;;;;5054242;28;20814;-74
2022/05/19 06:48:03;;;;;;;28.48;17.92;;;15.10;99.90;;;;;;5057518;28;20038;-74
2022/05/19 06:50:29;;;;;;;30.55;17.00;;;15.00;99.90;;;;;;5056072;28;20036;-73
2022/05/19 06:53:00;;;;;;;28.77;17.30;;;14.90;99.90;;;;;;5044207;28;20037;-73
2022/05/19 06:55:26;;;;;;;30.85;17.75;;;14.90;99.90;;;;;;5048194;28;20611;-73
2022/05/19 06:57:52;;;;;;;28.15;17.17;;;14.80;99.90;;;;;;5046597;28;20139;-73
2022/05/19 07:00:20;;;;;;;32.38;18.65;;;14.80;99.90;;;;;;5046919;28;20036;-73
2022/05/19 07:02:53;;;;;;;33.45;18.73;;;14.80;99.90;;;;;;4690564;28;10000221;-73
2022/05/19 07:05:22;;;;;;;34.05;18.75;;;14.70;99.90;;;;;;5040596;28;20488;-75
2022/05/19 07:07:48;;;;;;;31.15;18.75;;;14.70;99.90;;;;;;5045512;28;20025;-75
2022/05/19 07:10:21;;;;;;;32.03;18.95;;;14.60;99.90;;;;;;5044864;28;20056;-74
2022/05/19 07:12:47;;;;;;;31.02;17.80;;;14.60;99.90;;;;;;5049246;28;20497;-74
2022/05/19 07:15:15;;;;;;;29.88;18.40;;;14.50;99.90;;;;;;5050496;28;20033;-74
2022/05/19 07:17:41;;;;;;;31.40;18.83;;;14.50;99.90;;;;;;5049639;28;20173;-74
2022/05/19 07:22:52;;;;;;;36.38;21.05;;;14.50;99.90;;;;;;5048647;28;20558;-74
2022/05/19 07:25:18;;;;;;;38.97;20.60;;;14.50;99.90;;;;;;5050655;28;20069;-74
2022/05/19 07:27:44;;;;;;;36.47;20.25;;;14.50;99.90;;;;;;5051389;28;20718;-74
2022/05/19 07:30:11;;;;;;;42.47;21.52;;;14.50;99.90;;;;;;5049984;28;20111;-74
2022/05/19 07:32:37;;;;;;;44.53;23.10;;;14.50;99.90;;;;;;5053257;28;20027;-74
2022/05/19 07:35:05;;;;;;;46.20;23.80;;;14.50;99.90;;;;;;5055952;28;20032;-75
2022/05/19 07:37:31;;;;;;;42.05;22.75;;;14.60;99.90;;;;;;5027889;28;20020;-75
2022/05/19 07:39:57;;;;;;;47.38;24.73;;;14.80;99.90;;;;;;5053078;28;20143;-71
2022/05/19 07:42:23;;;;;;;35.65;20.58;;;15.00;99.90;;;;;;5053074;28;20032;-71
2022/05/19 07:44:49;;;;;;;38.58;20.48;;;15.20;99.90;;;;;;5054302;28;20511;-71
2022/05/19 07:47:15;;;;;;;34.72;20.58;;;15.40;99.90;;;;;;5053233;28;20581;-71
2022/05/19 07:49:41;;;;;;;28.50;18.95;;;15.50;99.90;;;;;;5043624;28;20209;-71
2022/05/19 07:52:08;;;;;;;28.38;17.27;;;15.50;99.90;;;;;;5054341;28;20104;-71
2022/05/19 07:54:34;;;;;;;27.48;16.15;;;15.60;99.90;;;;;;5055945;28;20060;-72
2022/05/19 07:57:00;;;;;;;26.60;16.70;;;15.70;99.90;;;;;;5052347;28;20165;-72
2022/05/19 07:59:26;;;;;;;28.02;17.05;;;15.80;99.90;;;;;;5057013;28;20029;-72
2022/05/19 08:01:52;;;;;;;26.60;16.45;;;15.80;99.90;;;;;;5049731;28;20047;-72
2022/05/19 08:04:23;;;;;;;20.83;15.63;;;15.80;99.90;;;;;;5051148;28;20216;-72
2022/05/19 08:06:49;;;;;;;25.35;16.75;;;15.80;99.90;;;;;;5048960;28;20063;-72
2022/05/19 08:12:00;;;;;;;26.75;16.55;;;15.50;99.90;;;;;;5052396;28;20502;-72
2022/05/19 08:17:10;;;;;;;23.10;16.13;;;15.50;99.90;;;;;;5056132;28;20098;-72
2022/05/19 08:19:39;;;;;;;26.95;18.67;;;15.30;99.90;;;;;;5051161;28;20048;-72
2022/05/19 08:22:06;;;;;;;26.65;17.77;;;15.40;99.90;;;;;;5056338;28;20548;-73
2022/05/19 08:24:32;;;;;;;30.52;18.55;;;15.60;99.90;;;;;;5058031;28;20043;-72
2022/05/19 08:26:59;;;;;;;21.65;15.88;;;15.70;99.90;;;;;;5052271;28;20025;-72
2022/05/19 08:29:26;;;;;;;22.42;16.27;;;15.80;99.90;;;;;;5056409;28;20376;-72
2022/05/19 08:31:52;;;;;;;21.23;16.38;;;15.90;99.90;;;;;;5053242;28;20359;-73
2022/05/19 08:34:18;;;;;;;25.02;17.02;;;16.20;99.90;;;;;;5056108;28;20028;-72
2022/05/19 08:36:44;;;;;;;19.08;14.52;;;16.50;99.90;;;;;;5053330;28;20452;-73
2022/05/19 08:39:11;;;;;;;16.33;12.40;;;16.80;99.90;;;;;;5050853;28;20024;-73
2022/05/19 08:41:55;;;;;;;13.02;8.98;;;17.00;99.90;;;;;;5048159;28;20177;-73
2022/05/19 08:44:49;;;;;;;7.45;6.15;;;17.40;99.90;;;;;;5048770;28;20419;-73
2022/05/19 08:47:20;;;;;;;5.35;4.30;;;17.90;99.90;;;;;;5050131;28;20082;-73
2022/05/19 08:50:13;;;;;;;3.45;2.92;;;18.30;99.90;;;;;;5055463;28;20653;-73
2022/05/19 08:52:44;;;;;;;4.97;2.65;;;18.50;99.90;;;;;;5056128;28;20044;-73
2022/05/19 08:55:14;;;;;;;5.60;2.63;;;19.10;99.90;;;;;;5054006;28;20040;-73
2022/05/19 08:57:54;;;;;;;2.35;2.15;;;19.30;99.90;;;;;;5047232;28;20507;-73
2022/05/19 09:00:38;;;;;;;2.85;2.38;;;19.80;99.90;;;;;;5045235;28;20153;-74
2022/05/19 09:03:24;;;;;;;4.40;2.53;;;19.90;99.90;;;;;;5052034;28;20045;-74
2022/05/19 09:07:56;;;;;;;5.65;2.22;;;19.90;99.90;;;;;;5046550;28;20418;-74
2022/05/19 09:10:12;;;;;;;3.83;2.03;;;20.30;98.10;;;;;;5018602;28;20036;-74
2022/05/19 09:12:39;;;;;;;4.20;2.80;;;20.50;99.90;;;;;;4992129;28;20048;-74
2022/05/19 09:15:08;;;;;;;5.90;2.53;;;20.90;96.70;;;;;;4991306;28;20038;-74
2022/05/19 09:17:38;;;;;;;4.72;2.67;;;20.90;99.40;;;;;;5012696;28;20048;-74
2022/05/19 09:20:19;;;;;;;5.03;2.60;;;20.80;95.00;;;;;;5048786;28;20446;-74
2022/05/19 09:22:45;;;;;;;;;;;20.40;97.80;;;;;;5048096;28;20040;-74
2022/05/19 09:25:16;;;;;;;7.07;3.38;;;20.20;97.50;;;;;;5047189;28;19935;-74
2022/05/19 09:27:44;;;;;;;4.50;3.87;;;19.80;99.30;;;;;;5049387;28;20017;-74
2022/05/19 09:30:28;;;;;;;4.53;3.83;;;20.40;98.40;;;;;;5051756;28;20285;-74
2022/05/19 09:32:56;;;;;;;6.57;3.45;;;21.20;96.10;;;;;;5048500;28;20029;-74
2022/05/19 09:35:38;;;;;;;4.65;3.92;;;21.80;96.40;;;;;;5041389;28;20033;-74
2022/05/19 09:38:13;;;;;;;5.30;4.07;;;21.70;90.30;;;;;;5047775;28;20056;-73
2022/05/19 09:40:42;;;;;;;6.40;4.40;;;20.80;96.10;;;;;;5019156;22;20061;-73
2022/05/19 09:43:26;;;;;;;4.07;3.20;;;21.60;96.00;;;;;;5011606;28;20053;-74
2022/05/19 09:46:00;;;;;;;4.43;3.72;;;21.50;93.20;;;;;;5017865;28;20057;-74
2022/05/19 09:48:33;;;;;;;4.20;3.30;;;20.90;94.90;;;;;;5017850;28;20417;-74
2022/05/19 09:51:05;;;;;;;3.45;2.78;;;20.40;97.40;;;;;;5017414;28;20025;-74
2022/05/19 09:53:41;;;;;;;4.57;2.63;;;21.60;93.50;;;;;;5018834;28;20564;-74
2022/05/19 09:56:13;;;;;;;3.92;2.83;;;21.80;90.60;;;;;;5020145;28;20129;-74
2022/05/19 09:58:44;;;;;;;3.60;3.25;;;21.10;92.70;;;;;;5019610;28;20106;-73
2022/05/19 10:01:29;;;;;;;6.10;3.38;;;21.10;95.70;;;;;;5018644;28;20021;-73
2022/05/19 10:04:01;;;;;;;2.45;2.05;;;22.80;92.70;;;;;;5019014;28;20645;-73
2022/05/19 10:06:46;;;;;;;3.63;2.00;;;23.90;86.30;;;;;;4670662;28;9999757;-73
2022/05/19 10:09:19;;;;;;;3.45;2.03;;;24.50;86.30;;;;;;5020844;28;20075;-73
2022/05/19 10:11:52;;;;;;;5.03;1.92;;;25.60;77.50;;;;;;5009509;28;20484;-73
2022/05/19 10:14:25;;;;;;;3.58;1.67;;;26.10;78.30;;;;;;5012965;28;20041;-73
2022/05/19 10:16:57;;;;;;;2.80;1.50;;;25.30;77.20;;;;;;5020911;28;20040;-73
2022/05/19 10:19:31;;;;;;;4.13;1.75;;;24.20;75.80;;;;;;5013818;28;20041;-73
2022/05/19 10:22:34;;;;;;;4.50;1.67;;;23.00;87.90;;;;;;5027011;28;20029;-73
2022/05/19 10:25:08;;;;;;;4.32;1.73;;;23.80;90.50;;;;;;5014679;28;20479;-73
2022/05/19 10:31:12;;;;;;;4.72;0.80;;;26.20;76.30;;;;;;4985775;28;20034;-73
2022/05/19 10:33:41;;;;;;;2.13;0.90;;;26.80;76.90;;;;;;5023165;28;20497;-73
2022/05/19 10:36:34;;;;;;;3.60;0.88;;;27.30;74.00;;;;;;5021234;28;20586;-74
2022/05/19 10:39:24;;;;;;;2.83;0.60;;;29.00;65.90;;;;;;5026885;28;20039;-73
2022/05/19 10:42:25;;;;;;;2.67;0.93;;;28.60;62.60;;;;;;5041732;28;20477;-72
2022/05/19 10:45:17;;;;;;;5.55;0.98;;;27.70;61.40;;;;;;5001744;28;20038;-73
2022/05/19 10:48:07;;;;;;;3.83;0.98;;;28.30;61.60;;;;;;5021451;28;20029;-73
2022/05/19 10:50:35;;;;;;;2.95;0.90;;;28.70;60.90;;;;;;5018515;28;20103;-74
2022/05/19 10:53:25;;;;;;;6.95;1.15;;;30.20;63.40;;;;;;5038109;28;20033;-73
2022/05/19 10:56:03;;;;;;;5.10;0.85;;;28.20;62.70;;;;;;5018799;28;20037;-73
2022/05/19 10:58:48;;;;;;;5.00;0.85;;;26.90;75.10;;;;;;5035416;28;20028;-74
2022/05/19 11:01:50;;;;;;;5.00;1.08;;;27.20;71.10;;;;;;5023968;28;20039;-73
2022/05/19 11:04:31;;;;;;;6.32;1.27;;;26.10;70.90;;;;;;5017985;28;20045;-73
2022/05/19 11:07:08;;;;;;;3.60;1.30;;;24.30;80.60;;;;;;5027400;28;20029;-73
2022/05/19 11:09:57;;;;;;;3.72;1.23;;;23.90;83.40;;;;;;5019381;28;20063;-73
2022/05/19 11:12:27;;;;;;;2.65;1.10;;;23.20;88.00;;;;;;5021283;28;20025;-72
2022/05/19 11:15:38;;;;;;;4.65;1.10;;;22.70;90.40;;;;;;5018458;28;20053;-72
2022/05/19 11:18:12;;;;;;;2.92;1.27;;;22.30;90.10;;;;;;5018559;28;20902;-73
2022/05/19 11:21:14;;;;;;;4.00;0.80;;;22.90;91.30;;;;;;5026203;28;20037;-72
2022/05/19 11:24:01;;;;;;;3.08;1.08;;;23.40;87.70;;;;;;5018474;28;20136;-72
2022/05/19 11:26:31;;;;;;;6.63;1.23;;;24.60;78.70;;;;;;5019634;28;20505;-73
2022/05/19 11:29:08;;;;;;;3.40;1.10;;;25.10;85.00;;;;;;5025277;28;20025;-73
2022/05/19 11:31:39;;;;;;;4.60;0.90;;;25.80;74.00;;;;;;5034743;28;20039;-72
2022/05/19 11:34:19;;;;;;;1.95;0.73;;;25.90;77.50;;;;;;5016809;28;20029;-73
2022/05/19 11:37:05;;;;;;;2.70;0.60;;;25.90;72.70;;;;;;5013418;28;20034;-72
2022/05/19 11:39:39;;;;;;;3.58;1.15;;;25.90;68.20;;;;;;4693463;28;10000918;-73
2022/05/19 11:42:38;;;;;;;3.58;1.50;;;25.70;74.30;;;;;;5019354;28;20233;-72
2022/05/19 11:45:09;;;;;;;4.07;1.50;;;25.50;71.20;;;;;;5006340;28;20038;-72
2022/05/19 11:56:24;;;;;;;6.68;2.03;;;25.60;80.60;;;;;;5027396;28;20128;-72
2022/05/19 11:58:50;;;;;;;6.90;2.22;;;25.80;74.60;;;;;;5025617;28;20049;-71
2022/05/19 12:01:25;;;;;;;5.28;1.60;;;25.50;81.30;;;;;;5015315;28;20073;-72
2022/05/19 12:04:16;;;;;;;4.28;1.52;;;25.40;77.20;;;;;;5016273;28;20193;-71
2022/05/19 12:07:13;;;;;;;3.40;1.27;;;25.10;70.50;;;;;;5018840;28;20476;-71
2022/05/19 12:09:56;;;;;;;3.38;1.00;;;24.70;80.70;;;;;;5022613;28;20115;-72
2022/05/19 12:12:34;;;;;;;6.20;1.05;;;25.20;77.90;;;;;;5019541;28;20029;-71
2022/05/19 12:15:05;;;;;;;5.82;1.88;;;24.70;72.40;;;;;;5018868;28;20025;-71
2022/05/19 12:17:41;;;;;;;4.90;2.00;;;24.30;75.20;;;;;;5021705;28;20095;-71
2022/05/19 12:20:34;;;;;;;5.53;2.30;;;24.00;79.90;;;;;;5022365;28;20037;-71
2022/05/19 12:23:26;;;;;;;5.25;2.28;;;23.60;84.10;;;;;;5026973;28;20037;-71
2022/05/19 12:25:58;;;;;;;;;;;22.90;78.20;;;;;;5011785;28;20079;-71
2022/05/19 12:28:36;;;;;;;8.50;2.80;;;22.40;84.40;;;;;;5014540;28;20329;-71
2022/05/19 12:33:56;;;;;;;7.32;2.75;;;22.80;86.70;;;;;;5016378;28;20040;-71
2022/05/19 12:36:29;;;;;;;5.53;2.90;;;23.00;83.50;;;;;;5015078;28;20384;-71
2022/05/19 12:39:08;;;;;;;9.02;3.42;;;23.90;84.40;;;;;;5011823;28;20040;-71
2022/05/19 12:41:50;;;;;;;9.35;3.28;;;24.30;87.50;;;;;;5010402;28;20110;-71
2022/05/19 12:44:26;;;;;;;5.70;3.20;;;24.50;87.30;;;;;;5009115;28;20037;-71
2022/05/19 12:47:19;;;;;;;7.85;3.20;;;24.00;80.90;;;;;;5011245;28;20036;-71
2022/05/19 12:50:10;;;;;;;9.38;2.90;;;23.00;80.30;;;;;;5007356;28;20124;-71
2022/05/19 12:52:54;;;;;;;7.40;2.72;;;22.90;83.40;;;;;;5021130;28;20037;-71
2022/05/19 12:55:22;;;;;;;4.97;2.28;;;23.20;84.80;;;;;;5014790;28;20053;-71
2022/05/19 12:57:48;;;;;;;10.85;3.20;;;23.20;84.20;;;;;;5008016;28;20045;-71
2022/05/19 13:00:26;;;;;;;11.50;3.42;;;23.70;86.70;;;;;;5015183;28;20025;-71
2022/05/19 13:03:14;;;;;;;7.32;2.35;;;24.10;83.80;;;;;;5012141;28;20048;-71
2022/05/19 13:05:59;;;;;;;5.10;2.42;;;24.50;79.70;;;;;;5014928;28;20057;-71
2022/05/19 13:08:31;;;;;;;6.82;2.42;;;24.40;80.40;;;;;;5001776;28;20033;-70
2022/05/19 13:11:00;;;;;;;7.90;3.13;;;23.90;90.00;;;;;;5003134;28;20022;-71
2022/05/19 13:13:33;;;;;;;7.75;2.78;;;24.00;83.70;;;;;;5005888;28;20030;-71
2022/05/19 13:16:19;;;;;;;7.78;2.85;;;23.90;88.70;;;;;;4999836;28;20239;-71
2022/05/19 13:18:51;;;;;;;5.85;2.63;;;23.40;79.90;;;;;;5019361;28;20030;-70
2022/05/19 13:21:34;;;;;;;7.72;2.85;;;23.30;87.90;;;;;;5021250;28;20033;-71
2022/05/19 13:24:07;;;;;;;5.80;2.67;;;23.40;87.50;;;;;;5013916;28;20041;-70
2022/05/19 13:26:39;;;;;;;6.72;2.92;;;23.70;86.00;;;;;;5021365;28;20035;-70